Time;durP1;ratioP1;P1;durP2;ratioP2;P2;SDS_P1;SDS_P2;PMS_P1;PMS_P2;Temp;Humidity;BMP_temperature;BMP_pressure;BME280_temperature;BME280_humidity;BME280_pressure;Samples;Min_cycle;Max_cycle;Signal;HPM_P1;HPM_P2
2022/10/26 00:01:12;;;;;;;15.30;7.75;;;;;;;11.08;100.00;99323.31;1726823;82;21051;-45
2022/10/26 00:03:41;;;;;;;10.70;7.33;;;;;;;11.09;100.00;99323.67;1726721;80;22035;-46
2022/10/26 00:06:15;;;;;;;13.85;6.65;;;;;;;11.11;100.00;99330.56;1724628;80;20999;-44
2022/10/26 00:08:43;;;;;;;11.93;6.78;;;;;;;11.13;100.00;99335.72;1703884;83;21575;-46
2022/10/26 00:11:10;;;;;;;15.45;7.20;;;;;;;11.10;100.00;99331.48;1695117;83;21075;-45
2022/10/26 00:13:39;;;;;;;20.62;7.80;;;;;;;11.07;100.00;99336.91;1695325;82;21015;-47
2022/10/26 00:16:13;;;;;;;11.38;7.00;;;;;;;11.11;100.00;99339.78;1693885;83;21030;-46
2022/10/26 00:18:40;;;;;;;9.30;6.78;;;;;;;11.13;100.00;99335.72;1698678;83;21500;-46
2022/10/26 00:21:09;;;;;;;13.65;7.20;;;;;;;11.16;100.00;99338.66;1702137;83;21035;-45
2022/10/26 00:23:36;;;;;;;12.33;6.72;;;;;;;11.19;100.00;99338.02;1707172;83;21011;-45
2022/10/26 00:26:04;;;;;;;11.83;7.30;;;;;;;11.21;100.00;99333.51;1702702;83;21540;-45
2022/10/26 00:28:31;;;;;;;15.65;7.03;;;;;;;11.23;100.00;99342.16;1692801;83;21016;-45
2022/10/26 00:31:04;;;;;;;13.80;6.90;;;;;;;11.26;100.00;99338.05;1694708;83;21495;-45
2022/10/26 00:33:31;;;;;;;13.28;7.15;;;;;;;11.29;100.00;99338.33;1695376;83;21038;-44
2022/10/26 00:35:59;;;;;;;13.68;7.03;;;;;;;11.22;100.00;99333.03;1700995;82;21030;-46
2022/10/26 00:38:26;;;;;;;14.33;7.37;;;;;;;11.24;100.00;99337.73;1694448;83;21034;-45
2022/10/26 00:40:52;;;;;;;15.48;6.92;;;;;;;11.25;100.00;99339.45;1704615;82;21030;-46
2022/10/26 00:43:27;;;;;;;11.65;7.10;;;;;;;11.22;100.00;99335.19;1694956;82;21072;-45
2022/10/26 00:45:57;;;;;;;11.50;7.17;;;;;;;11.22;100.00;99344.41;1701913;82;21575;-46
2022/10/26 00:48:28;;;;;;;16.65;7.30;;;;;;;11.19;100.00;99339.34;1698736;83;21062;-44
2022/10/26 00:51:00;;;;;;;11.45;7.37;;;;;;;11.19;100.00;99337.14;1700948;83;21058;-45
2022/10/26 00:53:28;;;;;;;15.08;7.37;;;;;;;11.18;100.00;99339.41;1700169;82;21057;-45
2022/10/26 00:55:55;;;;;;;13.40;7.17;;;;;;;11.12;100.00;99330.93;1697693;82;21038;-45
2022/10/26 00:58:23;;;;;;;;;;;;;;;11.10;100.00;99332.80;1705901;83;21050;-46
2022/10/26 01:00:52;;;;;;;18.00;7.90;;;;;;;11.08;100.00;99335.16;1694727;83;20110;-47
2022/10/26 01:03:20;;;;;;;15.98;7.85;;;;;;;11.07;100.00;99334.28;1705772;82;21039;-45
2022/10/26 01:05:48;;;;;;;16.48;7.75;;;;;;;11.08;100.00;99334.68;1696142;83;21527;-45
2022/10/26 01:08:16;;;;;;;15.88;7.72;;;;;;;11.10;100.00;99334.12;1702215;83;21020;-45
2022/10/26 01:10:43;;;;;;;15.18;7.80;;;;;;;11.11;100.00;99330.56;1713542;82;21067;-44
2022/10/26 01:13:12;;;;;;;9.95;7.30;;;;;;;11.09;100.00;99337.67;1767599;80;21122;-46
2022/10/26 01:15:59;;;;;;;15.60;8.63;;;;;;;11.05;100.00;99338.79;1761818;80;20982;-46
2022/10/26 01:18:59;;;;;;;15.48;8.00;;;;;;;11.01;100.00;99338.59;1771082;79;21531;-47
2022/10/26 01:21:48;;;;;;;14.40;8.03;;;;;;;11.00;100.00;99332.94;1775152;79;21562;-45
2022/10/26 01:25:04;;;;;;;13.85;7.83;;;;;;;10.95;100.00;99342.86;1760784;80;21007;-45
2022/10/26 01:27:35;;;;;;;19.55;8.60;;;;;;;10.92;100.00;99349.63;1767039;80;20994;-47
2022/10/26 01:30:29;;;;;;;15.15;8.63;;;;;;;10.84;100.00;99349.20;1764543;79;21005;-47
2022/10/26 01:33:21;;;;;;;12.80;8.25;;;;;;;10.86;100.00;99347.33;1767254;79;21043;-45
2022/10/26 01:36:17;;;;;;;13.95;8.60;;;;;;;10.83;100.00;99350.15;1764408;80;21068;-47
2022/10/26 01:39:06;;;;;;;13.60;8.68;;;;;;;10.83;100.00;99348.36;1760722;80;21002;-46
2022/10/26 01:41:49;;;;;;;18.10;9.18;;;;;;;10.82;100.00;99354.53;1757077;80;20995;-45
2022/10/26 01:44:21;;;;;;;22.85;9.78;;;;;;;10.79;100.00;99353.41;1768858;80;21495;-47
2022/10/26 01:46:52;;;;;;;20.32;9.85;;;;;;;10.76;100.00;99349.16;1766003;80;20988;-44
2022/10/26 01:49:23;;;;;;;16.00;9.78;;;;;;;10.76;100.00;99346.52;1759077;80;21025;-46
2022/10/26 01:51:50;;;;;;;16.48;10.80;;;;;;;10.76;100.00;99344.37;1768461;80;21599;-47
2022/10/26 01:54:17;;;;;;;18.47;10.93;;;;;;;10.73;100.00;99349.78;1761113;80;20976;-46
2022/10/26 01:56:48;;;;;;;16.15;10.60;;;;;;;10.72;100.00;99348.11;1767589;80;21551;-45
2022/10/26 01:59:45;;;;;;;19.50;10.60;;;;;;;10.74;100.00;99347.08;1761223;80;21536;-48
2022/10/26 02:02:48;;;;;;;21.23;11.55;;;;;;;10.78;100.00;99342.97;1781655;79;21037;-47
2022/10/26 02:05:35;;;;;;;21.97;11.40;;;;;;;10.76;100.00;99349.16;1762857;80;21025;-46
2022/10/26 02:08:35;;;;;;;30.32;12.53;;;;;;;10.79;100.00;99347.28;1763447;80;21093;-45
2022/10/26 02:11:27;;;;;;;22.40;11.90;;;;;;;10.81;100.00;99349.39;1765014;80;21027;-46
2022/10/26 02:14:11;;;;;;;22.73;12.35;;;;;;;10.84;100.00;99344.80;1759735;80;22031;-45
2022/10/26 02:16:57;;;;;;;26.68;13.25;;;;;;;10.83;100.00;99350.15;1762225;79;21049;-45
2022/10/26 02:19:53;;;;;;;24.67;13.87;;;;;;;10.86;100.00;99352.14;1766055;80;21503;-45
2022/10/26 02:22:39;;;;;;;27.50;14.43;;;;;;;10.87;100.00;99355.61;1773456;80;21026;-47
2022/10/26 02:25:11;;;;;;;24.90;13.53;;;;;;;10.88;100.00;99352.06;1755049;80;21503;-45
2022/10/26 02:27:42;;;;;;;25.95;14.38;;;;;;;10.89;100.00;99350.63;1769945;80;21015;-45
2022/10/26 02:30:12;;;;;;;27.07;15.38;;;;;;;10.94;100.00;99354.34;1771077;80;21065;-47
2022/10/26 02:32:44;;;;;;;30.82;14.68;;;;;;;10.93;100.00;99347.37;1764139;80;21027;-48
2022/10/26 02:35:13;;;;;;;24.77;14.58;;;;;;;10.94;100.00;99353.86;1767162;79;21576;-46
2022/10/26 02:37:42;;;;;;;24.15;14.83;;;;;;;10.97;100.00;99349.36;1773217;79;21011;-45
2022/10/26 02:43:12;;;;;;;27.98;14.83;;;;;;;11.02;100.00;99357.84;1694326;80;21174;-46
2022/10/26 02:45:43;;;;;;;25.48;15.30;;;;;;;11.04;100.00;99352.03;1719706;82;21563;-46
2022/10/26 02:48:10;;;;;;;24.82;15.23;;;;;;;11.05;100.00;99359.84;1696305;83;21556;-46
2022/10/26 02:50:58;;;;;;;29.80;17.35;;;;;;;11.07;100.00;99359.77;1703142;82;21068;-45
2022/10/26 02:53:37;;;;;;;31.07;17.00;;;;;;;11.07;100.00;99359.77;1710418;83;21027;-46
2022/10/26 02:56:09;;;;;;;29.02;17.75;;;;;;;11.07;100.00;99364.55;1690660;83;21512;-45
2022/10/26 02:58:40;;;;;;;32.48;17.75;;;;;;;11.05;100.00;99375.63;1705507;82;21031;-46
2022/10/26 03:01:07;;;;;;;35.35;17.73;;;;;;;11.03;100.00;99377.50;1686441;82;21240;-44
2022/10/26 03:03:34;;;;;;;;;;;;;;;11.07;100.00;99373.76;1695887;83;21030;-47
2022/10/26 03:06:00;;;;;;;27.45;16.37;;;;;;;11.06;100.00;99376.47;1693865;81;20128;-46
2022/10/26 03:08:27;;;;;;;30.67;18.33;;;;;;;11.08;100.00;99376.78;1702240;83;21031;-46
2022/10/26 03:10:54;;;;;;;33.42;18.27;;;;;;;11.04;100.00;99379.66;1708725;82;21567;-45
2022/10/26 03:13:21;;;;;;;38.80;18.37;;;;;;;10.94;100.00;99381.48;1732043;80;20983;-44
2022/10/26 03:15:47;;;;;;;37.43;18.73;;;;;;;10.90;100.00;99374.70;1754425;80;21722;-44
2022/10/26 03:18:14;;;;;;;31.23;18.73;;;;;;;10.91;100.00;99376.42;1749515;80;21018;-45
2022/10/26 03:20:44;;;;;;;31.68;19.23;;;;;;;10.90;100.00;99381.28;1747129;80;20982;-45
2022/10/26 03:23:11;;;;;;;31.68;19.17;;;;;;;10.89;100.00;99387.94;1754669;80;21101;-46
2022/10/26 03:25:38;;;;;;;32.15;20.08;;;;;;;10.90;100.00;99385.70;1751429;80;21063;-44
2022/10/26 03:28:06;;;;;;;31.63;19.50;;;;;;;10.88;100.00;99388.89;1745558;81;21014;-45
2022/10/26 03:30:32;;;;;;;34.65;20.17;;;;;;;10.87;100.00;99389.81;1748577;80;21019;-46
2022/10/26 03:32:59;;;;;;;36.70;19.13;;;;;;;10.81;100.00;99395.42;1769452;80;21689;-46
2022/10/26 03:35:26;;;;;;;41.33;21.10;;;;;;;10.78;100.00;99392.95;1763733;80;21018;-46
2022/10/26 03:37:53;;;;;;;37.05;20.65;;;;;;;10.82;100.00;99387.89;1748966;80;21038;-46
2022/10/26 03:40:20;;;;;;;32.25;19.92;;;;;;;10.80;100.00;99396.34;1748861;81;21491;-44
2022/10/26 03:42:47;;;;;;;38.90;20.07;;;;;;;10.80;100.00;99398.97;1750401;81;21034;-44
2022/10/26 03:45:14;;;;;;;32.43;19.10;;;;;;;10.75;100.00;99397.89;1747973;80;21476;-44
2022/10/26 03:47:45;;;;;;;31.57;18.95;;;;;;;10.73;100.00;99394.50;1748623;80;20987;-45
2022/10/26 03:50:16;;;;;;;36.70;18.80;;;;;;;10.66;100.00;99407.16;1747162;80;21578;-44
2022/10/26 03:52:44;;;;;;;31.02;17.70;;;;;;;10.64;100.00;99398.50;1752799;80;21564;-44
2022/10/26 03:55:10;;;;;;;34.08;18.65;;;;;;;10.64;100.00;99412.09;1729245;80;21010;-46
2022/10/26 03:57:42;;;;;;;31.25;18.62;;;;;;;10.68;100.00;99407.91;1761998;80;21026;-45
2022/10/26 04:00:14;;;;;;;40.85;20.08;;;;;;;10.69;100.00;99410.91;1752018;80;20994;-45
2022/10/26 04:02:48;;;;;;;32.60;18.67;;;;;;;10.70;100.00;99420.98;1755160;80;20979;-47
2022/10/26 04:05:15;;;;;;;35.40;18.98;;;;;;;10.73;100.00;99407.65;1761652;80;21065;-47
2022/10/26 04:07:42;;;;;;;34.33;19.55;;;;;;;10.73;100.00;99408.97;1757000;80;21007;-46
2022/10/26 04:10:10;;;;;;;31.10;17.37;;;;;;;10.74;100.00;99402.79;1751947;80;21010;-45
2022/10/26 04:12:37;;;;;;;29.00;17.40;;;;;;;10.73;100.00;99404.58;1745743;81;21050;-45
2022/10/26 04:15:06;;;;;;;32.63;17.67;;;;;;;10.67;100.00;99411.47;1759275;80;21070;-46
2022/10/26 04:17:33;;;;;;;27.07;17.48;;;;;;;10.69;100.00;99413.54;1747178;80;20975;-45
2022/10/26 04:19:59;;;;;;;35.00;17.82;;;;;;;10.68;100.00;99411.86;1752059;80;21475;-45
2022/10/26 04:22:26;;;;;;;30.60;16.73;;;;;;;10.68;100.00;99413.66;1747035;81;20976;-45
2022/10/26 04:24:53;;;;;;;28.25;16.70;;;;;;;10.63;100.00;99412.56;1751814;80;21051;-45
2022/10/26 04:27:20;;;;;;;24.93;16.07;;;;;;;10.64;100.00;99414.28;1765881;80;21019;-46
2022/10/26 04:29:47;;;;;;;29.87;17.37;;;;;;;10.59;100.00;99416.30;1749767;80;21250;-44
2022/10/26 04:32:14;;;;;;;28.07;17.65;;;;;;;10.53;100.00;99414.85;1748354;80;21460;-45
2022/10/26 04:34:40;;;;;;;30.32;19.37;;;;;;;10.51;100.00;99418.03;1753700;81;21007;-47
2022/10/26 04:37:07;;;;;;;38.73;18.07;;;;;;;10.46;100.00;99413.92;1746722;81;21018;-44
2022/10/26 04:39:34;;;;;;;31.67;18.50;;;;;;;10.41;100.00;99409.39;1750570;80;21067;-44
2022/10/26 04:42:00;;;;;;;31.37;19.17;;;;;;;10.39;100.00;99409.47;1755595;80;20999;-46
2022/10/26 04:44:27;;;;;;;26.83;16.63;;;;;;;10.42;100.00;99409.77;1752321;80;21492;-45
2022/10/26 04:46:54;;;;;;;30.55;18.50;;;;;;;10.44;100.00;99414.47;1755955;80;21006;-45
2022/10/26 04:49:20;;;;;;;31.13;19.50;;;;;;;10.41;100.00;99414.66;1758353;80;21551;-45
2022/10/26 04:51:47;;;;;;;35.30;17.67;;;;;;;10.40;100.00;99416.41;1756378;80;21054;-45
2022/10/26 04:54:14;;;;;;;31.87;17.50;;;;;;;10.41;100.00;99415.97;1753393;80;21680;-45
2022/10/26 04:56:41;;;;;;;35.00;16.63;;;;;;;10.41;100.00;99414.66;1750392;80;21023;-45
2022/10/26 04:59:08;;;;;;;42.75;17.20;;;;;;;10.34;100.00;99416.27;1750412;80;21511;-45
2022/10/26 05:01:34;;;;;;;29.13;16.57;;;;;;;10.35;100.00;99420.61;1753292;80;21460;-44
2022/10/26 05:04:01;;;;;;;46.63;15.83;;;;;;;10.37;100.00;99417.43;1752259;80;21043;-44
2022/10/26 05:06:29;;;;;;;39.53;15.53;;;;;;;10.35;100.00;99412.73;1715583;82;21019;-44
2022/10/26 05:08:55;;;;;;;41.77;15.00;;;;;;;10.34;100.00;99416.27;1708372;82;21018;-44
2022/10/26 05:11:22;;;;;;;34.20;15.63;;;;;;;10.35;100.00;99417.98;1693120;82;21019;-46
2022/10/26 05:13:49;;;;;;;52.55;15.40;;;;;;;10.34;100.00;99422.84;1716234;82;21500;-45
2022/10/26 05:16:16;;;;;;;39.83;15.63;;;;;;;10.30;100.00;99414.70;1686717;83;21038;-47
2022/10/26 05:18:42;;;;;;;49.65;15.13;;;;;;;10.32;100.00;99423.39;1715187;82;21074;-47
2022/10/26 05:21:11;;;;;;;44.90;15.20;;;;;;;10.28;100.00;99423.61;1725927;81;21594;-45
2022/10/26 05:23:38;;;;;;;31.52;14.75;;;;;;;10.25;100.00;99420.66;1718963;82;21162;-45
2022/10/26 05:26:04;;;;;;;39.80;13.67;;;;;;;10.25;100.00;99429.02;1692268;83;21040;-45
2022/10/26 05:28:31;;;;;;;33.90;13.30;;;;;;;10.25;100.00;99431.17;1689900;83;21046;-46
2022/10/26 05:30:58;;;;;;;36.28;14.07;;;;;;;10.25;100.00;99431.17;1690537;84;21022;-47
2022/10/26 05:33:25;;;;;;;40.70;13.13;;;;;;;10.24;100.00;99432.13;1691379;83;21014;-45
2022/10/26 05:35:55;;;;;;;43.45;14.00;;;;;;;10.20;100.00;99441.06;1697414;83;21030;-44
2022/10/26 05:38:21;;;;;;;46.37;13.70;;;;;;;10.20;100.00;99439.75;1690013;83;20991;-46
2022/10/26 05:40:50;;;;;;;29.20;12.67;;;;;;;10.22;100.00;99443.63;1694319;83;21034;-46
2022/10/26 05:43:19;;;;;;;34.88;13.38;;;;;;;10.24;100.00;99443.08;1692360;83;21531;-46
2022/10/26 05:45:46;;;;;;;46.50;14.93;;;;;;;10.25;100.00;99452.20;1692354;83;21548;-45
2022/10/26 05:48:13;;;;;;;45.33;14.10;;;;;;;10.26;100.00;99453.05;1701449;84;21328;-44
2022/10/26 05:50:40;;;;;;;39.27;14.27;;;;;;;10.28;100.00;99459.94;1698988;83;21039;-46
2022/10/26 05:53:07;;;;;;;57.03;12.60;;;;;;;10.28;100.00;99463.88;1689710;84;21055;-46
2022/10/26 05:55:34;;;;;;;41.48;12.33;;;;;;;10.27;100.00;99467.42;1692206;83;21032;-47
2022/10/26 05:58:02;;;;;;;33.33;12.15;;;;;;;10.21;100.00;99469.53;1699886;83;21039;-47
2022/10/26 06:00:29;;;;;;;;;;;;;;;10.23;100.00;99465.89;1697706;83;21071;-46
2022/10/26 06:03:18;;;;;;;45.75;12.63;;;;;;;10.22;100.00;99469.43;1695213;83;20195;-46
2022/10/26 06:05:57;;;;;;;31.15;12.37;;;;;;;10.23;100.00;99465.89;1756481;80;21081;-47
2022/10/26 06:08:27;;;;;;;56.13;12.95;;;;;;;10.21;100.00;99473.48;1756246;80;21011;-46
2022/10/26 06:10:58;;;;;;;58.35;14.55;;;;;;;10.22;100.00;99477.31;1756397;80;21062;-45
2022/10/26 06:13:25;;;;;;;46.10;13.00;;;;;;;10.21;100.00;99473.48;1757180;80;21538;-46
2022/10/26 06:16:14;;;;;;;39.00;12.95;;;;;;;10.20;100.00;99484.43;1748662;80;21163;-44
2022/10/26 06:19:10;;;;;;;35.40;13.43;;;;;;;10.19;100.00;99482.75;1751465;80;21026;-46
2022/10/26 06:22:03;;;;;;;46.15;14.63;;;;;;;10.17;100.00;99481.51;1754179;80;21520;-45
2022/10/26 06:25:29;;;;;;;33.70;12.35;;;;;;;10.20;100.00;99484.43;1756930;80;21449;-46
2022/10/26 06:28:25;;;;;;;50.50;13.50;;;;;;;10.21;100.00;99486.62;1718328;82;21493;-46
2022/10/26 06:30:52;;;;;;;38.13;14.30;;;;;;;10.22;100.00;99491.77;1682553;84;21047;-46
2022/10/26 06:33:19;;;;;;;43.87;14.13;;;;;;;10.24;100.00;99491.26;1691542;83;21019;-45
2022/10/26 06:35:52;;;;;;;58.65;13.50;;;;;;;10.23;100.00;99489.55;1686025;83;20991;-46
2022/10/26 06:38:22;;;;;;;35.55;13.68;;;;;;;10.25;100.00;99486.38;1667535;84;21043;-45
2022/10/26 06:40:52;;;;;;;42.95;14.60;;;;;;;10.29;100.00;99490.53;1674735;84;21039;-46
2022/10/26 06:43:25;;;;;;;44.88;12.90;;;;;;;10.25;100.00;99485.05;1686486;83;21057;-44
2022/10/26 06:46:05;;;;;;;38.33;13.30;;;;;;;10.29;100.00;99493.16;1691316;83;21071;-46
2022/10/26 06:48:55;;;;;;;30.97;13.10;;;;;;;10.37;100.00;99491.52;1680646;84;21068;-45
2022/10/26 06:51:24;;;;;;;37.90;13.88;;;;;;;10.40;100.00;99498.37;1646016;86;21055;-46
2022/10/26 06:54:04;;;;;;;35.63;12.47;;;;;;;10.38;100.00;99496.66;1651094;86;21043;-45
2022/10/26 06:56:32;;;;;;;26.93;12.20;;;;;;;10.41;100.00;99507.98;1651447;85;21511;-44
2022/10/26 06:59:07;;;;;;;36.60;13.00;;;;;;;10.42;100.00;99509.19;1645974;86;21079;-45
2022/10/26 07:01:33;;;;;;;36.53;11.15;;;;;;;10.43;100.00;99514.84;1648646;85;21595;-45
2022/10/26 07:04:00;;;;;;;38.10;12.10;;;;;;;10.43;100.00;99508.75;1651198;84;21042;-46
2022/10/26 07:06:27;;;;;;;37.60;13.17;;;;;;;10.42;100.00;99513.61;1689470;83;21079;-44
2022/10/26 07:08:54;;;;;;;38.83;12.50;;;;;;;10.44;100.00;99515.69;1756928;80;20971;-44
2022/10/26 07:11:20;;;;;;;39.08;16.27;;;;;;;10.48;100.00;99510.68;1756458;80;21097;-46
2022/10/26 07:13:49;;;;;;;41.87;15.53;;;;;;;10.48;100.00;99509.37;1752741;80;21524;-44
2022/10/26 07:16:16;;;;;;;40.83;15.38;;;;;;;10.49;100.00;99510.58;1732158;81;21686;-45
2022/10/26 07:18:42;;;;;;;35.00;16.73;;;;;;;10.54;100.00;99515.14;1747992;80;21022;-45
2022/10/26 07:21:09;;;;;;;44.27;16.53;;;;;;;10.56;100.00;99523.80;1753013;80;21594;-44
2022/10/26 07:23:36;;;;;;;38.53;17.53;;;;;;;10.60;100.00;99516.59;1749488;80;21187;-46
2022/10/26 07:26:03;;;;;;;36.20;17.97;;;;;;;10.63;100.00;99523.50;1749264;80;21050;-46
2022/10/26 07:28:29;;;;;;;44.37;17.23;;;;;;;10.66;100.00;99519.38;1752406;80;20975;-47
2022/10/26 07:30:57;;;;;;;41.13;19.47;;;;;;;10.70;100.00;99529.67;1747597;80;21015;-47
2022/10/26 07:33:24;;;;;;;38.38;18.15;;;;;;;10.74;100.00;99527.25;1751996;80;20999;-46
2022/10/26 07:35:53;;;;;;;43.78;18.30;;;;;;;10.79;100.00;99536.68;1759604;80;21502;-45
2022/10/26 07:38:19;;;;;;;36.73;17.12;;;;;;;10.80;100.00;99533.13;1750368;80;21011;-45
2022/10/26 07:40:47;;;;;;;32.33;16.85;;;;;;;10.86;100.00;99534.11;1758366;80;21054;-44
2022/10/26 07:43:15;;;;;;;33.60;16.55;;;;;;;10.85;100.00;99541.64;1758689;80;21526;-45
2022/10/26 07:45:41;;;;;;;31.97;16.93;;;;;;;10.87;100.00;99543.72;1755577;81;21003;-45
2022/10/26 07:48:08;;;;;;;37.83;17.30;;;;;;;10.89;100.00;99541.85;1749049;80;21041;-46
2022/10/26 07:50:35;;;;;;;30.83;17.70;;;;;;;10.92;100.00;99544.33;1752316;80;20991;-45
2022/10/26 07:53:02;;;;;;;35.77;16.97;;;;;;;10.94;100.00;99539.84;1751039;80;21013;-45
2022/10/26 07:55:28;;;;;;;32.03;17.92;;;;;;;10.99;100.00;99543.08;1752508;80;21516;-45
2022/10/26 07:57:55;;;;;;;37.40;18.47;;;;;;;11.04;100.00;99545.45;1751341;80;20975;-46
2022/10/26 08:00:22;;;;;;;37.27;17.53;;;;;;;11.08;100.00;99549.17;1755982;80;21093;-44
2022/10/26 08:02:48;;;;;;;34.23;17.90;;;;;;;11.11;100.00;99548.14;1769157;80;21054;-44
2022/10/26 08:05:16;;;;;;;34.90;17.30;;;;;;;11.15;100.00;99543.09;1759112;80;21019;-44
2022/10/26 08:07:44;;;;;;;28.40;16.73;;;;;;;11.20;100.00;99534.95;1754140;80;20979;-45
2022/10/26 08:10:13;;;;;;;34.03;18.60;;;;;;;11.20;100.00;99537.59;1755940;80;21020;-45
2022/10/26 08:12:42;;;;;;;33.92;17.70;;;;;;;11.22;100.00;99543.14;1757203;80;20986;-44
2022/10/26 08:15:09;;;;;;;38.08;18.98;;;;;;;11.28;100.00;99540.20;1753848;81;21046;-45
2022/10/26 08:17:36;;;;;;;;;;;;;;;11.32;100.00;99547.47;1763594;80;21523;-46
2022/10/26 08:20:04;;;;;;;34.67;18.20;;;;;;;11.23;100.00;99543.55;1761483;80;20428;-45
2022/10/26 08:22:30;;;;;;;;;;;;;;;11.31;100.00;99546.63;1751832;80;21523;-46
2022/10/26 08:24:57;;;;;;;35.50;18.27;;;;;;;11.26;100.00;99549.09;1749316;80;20433;-47
2022/10/26 08:27:24;;;;;;;42.67;17.75;;;;;;;11.30;100.00;99545.39;1762521;80;21011;-47
2022/10/26 08:29:51;;;;;;;33.00;17.17;;;;;;;11.23;100.00;99545.33;1756471;80;20999;-45
2022/10/26 08:32:17;;;;;;;30.57;16.65;;;;;;;11.30;100.00;99550.66;1753092;80;21047;-47
2022/10/26 08:34:44;;;;;;;31.13;15.57;;;;;;;11.36;100.00;99549.47;1754245;80;20975;-42
2022/10/26 08:37:11;;;;;;;25.05;14.25;;;;;;;11.39;100.00;99557.17;1754322;80;21022;-43
2022/10/26 08:39:38;;;;;;;32.03;16.27;;;;;;;11.35;100.00;99549.95;1750715;80;21046;-43
2022/10/26 08:42:13;;;;;;;24.23;15.33;;;;;;;11.37;100.00;99555.09;1750754;80;21026;-44
2022/10/26 08:44:46;;;;;;;28.07;14.15;;;;;;;11.41;100.00;99553.55;1752330;80;21015;-45
2022/10/26 08:47:20;;;;;;;27.22;14.90;;;;;;;11.39;100.00;99555.86;1757332;80;21224;-44
2022/10/26 08:49:55;;;;;;;30.48;15.50;;;;;;;11.42;100.00;99561.81;1761148;80;21054;-45
2022/10/26 08:52:33;;;;;;;25.75;14.28;;;;;;;11.46;100.00;99562.05;1750827;80;21015;-44
2022/10/26 08:55:03;;;;;;;28.47;14.83;;;;;;;11.49;100.00;99565.81;1757296;80;21010;-44
2022/10/26 08:57:40;;;;;;;27.73;14.47;;;;;;;11.52;100.00;99566.97;1756760;80;21010;-45
2022/10/26 09:00:24;;;;;;;29.30;14.90;;;;;;;11.57;100.00;99568.05;1756102;80;21073;-45
2022/10/26 09:02:52;;;;;;;35.55;15.23;;;;;;;11.60;100.00;99574.92;1749397;80;21033;-45
2022/10/26 09:05:30;;;;;;;32.48;17.07;;;;;;;11.58;100.00;99569.73;1759611;80;21057;-45
2022/10/26 09:08:11;;;;;;;25.68;15.75;;;;;;;11.64;100.00;99580.39;1747453;80;20983;-43
2022/10/26 09:10:59;;;;;;;37.08;18.23;;;;;;;11.59;100.00;99571.45;1746728;80;21054;-44
2022/10/26 09:13:47;;;;;;;32.45;19.07;;;;;;;11.55;100.00;99579.59;1745005;80;21011;-43
2022/10/26 09:16:22;;;;;;;41.00;20.52;;;;;;;11.46;100.00;99580.48;1743338;81;21008;-44
2022/10/26 09:19:27;;;;;;;36.75;19.60;;;;;;;11.53;100.00;99582.30;1737156;81;20992;-45
2022/10/26 09:22:22;;;;;;;36.65;19.67;;;;;;;11.56;100.00;99589.20;1728078;81;21051;-44
2022/10/26 09:24:56;;;;;;;29.12;17.62;;;;;;;11.64;100.00;99594.44;1750382;80;21038;-45
2022/10/26 09:27:29;;;;;;;27.65;16.40;;;;;;;11.75;100.00;99595.17;1733359;80;21018;-43
2022/10/26 09:30:00;;;;;;;30.25;17.15;;;;;;;11.75;100.00;99602.20;1753416;80;21072;-43
2022/10/26 09:32:41;;;;;;;29.50;16.07;;;;;;;11.88;100.00;99599.28;1741610;80;21031;-45
2022/10/26 09:35:25;;;;;;;20.37;13.75;;;;;;;12.00;100.00;99590.70;1726950;80;21497;-43
2022/10/26 09:38:00;;;;;;;26.82;14.30;;;;;;;12.09;100.00;99598.09;1737145;80;21054;-43
2022/10/26 09:40:41;;;;;;;21.65;14.40;;;;;;;12.12;100.00;99597.56;1731537;80;20979;-45
2022/10/26 09:43:25;;;;;;;27.62;14.87;;;;;;;12.14;99.72;99600.48;1734394;80;21035;-44
2022/10/26 09:45:53;;;;;;;27.82;13.13;;;;;;;12.20;99.64;99608.02;1738847;81;21160;-45
2022/10/26 09:48:38;;;;;;;26.55;13.32;;;;;;;12.22;99.67;99610.09;1732730;82;20976;-44
2022/10/26 09:51:05;;;;;;;22.50;11.75;;;;;;;12.31;99.76;99611.84;1745737;80;21579;-45
2022/10/26 09:53:32;;;;;;;21.20;11.35;;;;;;;12.29;99.31;99609.29;1743854;81;21036;-44
2022/10/26 09:56:10;;;;;;;15.45;11.73;;;;;;;12.40;99.25;99602.08;1729203;81;20984;-44
2022/10/26 09:58:58;;;;;;;23.20;12.50;;;;;;;12.40;98.71;99612.16;1733108;81;21062;-52
2022/10/26 10:01:31;;;;;;;18.50;12.23;;;;;;;12.45;98.71;99610.58;1726554;82;21626;-44
2022/10/26 10:04:15;;;;;;;20.88;12.63;;;;;;;12.44;98.79;99611.51;1724206;81;21519;-47
2022/10/26 10:06:44;;;;;;;20.35;13.88;;;;;;;12.55;98.89;99607.80;1732726;81;21538;-46
2022/10/26 10:09:23;;;;;;;24.07;14.20;;;;;;;12.61;98.66;99612.70;1740955;81;21051;-43
2022/10/26 10:11:55;;;;;;;20.32;12.20;;;;;;;12.71;98.71;99616.96;1733855;81;20979;-44
2022/10/26 10:14:32;;;;;;;21.42;13.55;;;;;;;12.73;97.82;99613.76;1731321;82;21028;-44
2022/10/26 10:17:07;;;;;;;20.23;12.93;;;;;;;12.79;97.63;99611.26;1739469;81;21023;-45
2022/10/26 10:19:36;;;;;;;24.80;14.38;;;;;;;12.80;97.84;99610.30;1728019;81;20967;-46
2022/10/26 10:22:21;;;;;;;24.72;13.30;;;;;;;12.91;97.82;99609.66;1754885;80;21015;-44
2022/10/26 10:24:57;;;;;;;24.23;14.58;;;;;;;12.91;97.50;99615.78;1739599;81;21523;-46
2022/10/26 10:27:25;;;;;;;24.60;15.18;;;;;;;13.00;97.56;99607.78;1729290;81;21627;-42
2022/10/26 10:29:55;;;;;;;25.52;15.70;;;;;;;13.06;97.02;99604.31;1754925;80;21085;-46
2022/10/26 10:32:29;;;;;;;20.82;14.45;;;;;;;13.15;96.87;99601.59;1733147;80;21027;-46
2022/10/26 10:34:58;;;;;;;24.10;15.48;;;;;;;13.21;96.55;99605.16;1731597;80;21019;-44
2022/10/26 10:37:33;;;;;;;23.27;16.52;;;;;;;13.31;96.37;99599.34;1734993;81;21051;-44
2022/10/26 10:40:08;;;;;;;22.58;15.98;;;;;;;13.59;97.12;99598.02;1735883;81;21036;-44
2022/10/26 10:42:38;;;;;;;23.45;15.20;;;;;;;13.75;95.75;99598.35;1736051;80;21033;-44
2022/10/26 10:45:13;;;;;;;24.47;14.83;;;;;;;13.88;93.67;99599.73;1728485;81;21046;-44
2022/10/26 10:47:40;;;;;;;26.33;14.90;;;;;;;14.09;93.77;99594.88;1743989;80;21504;-45
2022/10/26 10:50:18;;;;;;;23.42;14.10;;;;;;;14.24;92.95;99595.18;1739306;80;20999;-45
2022/10/26 10:52:46;;;;;;;23.50;14.60;;;;;;;14.39;93.08;99593.34;1729962;81;21111;-44
2022/10/26 10:55:21;;;;;;;;;;;;;;;14.42;91.14;99589.16;1744919;81;21011;-44
2022/10/26 10:58:17;;;;;;;20.15;14.10;;;;;;;14.33;89.43;99589.77;1720725;81;20423;-45
2022/10/26 11:00:47;;;;;;;17.65;12.98;;;;;;;14.41;90.76;99583.50;1726473;81;20995;-45
2022/10/26 11:03:37;;;;;;;20.92;13.98;;;;;;;14.44;90.25;99584.59;1726530;81;21055;-46
2022/10/26 11:06:22;;;;;;;19.40;12.37;;;;;;;14.46;89.87;99588.02;1739796;80;21014;-44
2022/10/26 11:09:06;;;;;;;22.07;13.45;;;;;;;14.49;89.95;99585.15;1747082;80;21463;-44
2022/10/26 11:11:41;;;;;;;21.37;14.23;;;;;;;14.45;88.86;99583.66;1746977;80;21100;-44
2022/10/26 11:14:27;;;;;;;22.62;12.95;;;;;;;14.39;88.78;99586.25;1735529;80;21038;-45
2022/10/26 11:17:28;;;;;;;19.13;13.13;;;;;;;14.40;89.29;99583.12;1751787;80;21109;-45
2022/10/26 11:20:01;;;;;;;20.25;12.35;;;;;;;14.35;89.13;99589.19;1750232;80;21002;-46
2022/10/26 11:22:33;;;;;;;21.75;11.85;;;;;;;14.38;89.92;99580.56;1740149;80;21063;-44
2022/10/26 11:25:18;;;;;;;21.15;11.93;;;;;;;14.42;89.88;99585.18;1719246;81;21611;-46
2022/10/26 11:27:49;;;;;;;17.42;11.40;;;;;;;14.46;89.77;99584.05;1736058;81;21027;-45
2022/10/26 11:30:24;;;;;;;20.85;12.40;;;;;;;14.49;89.39;99579.86;1735201;81;21071;-46
2022/10/26 11:33:11;;;;;;;20.30;10.75;;;;;;;14.52;89.73;99585.44;1725015;81;21058;-44
2022/10/26 11:35:44;;;;;;;;;;;;;;;14.51;88.67;99581.08;1731912;80;21539;-48
2022/10/26 11:38:36;;;;;;;15.13;11.00;;;;;;;14.48;87.81;99580.82;1732073;80;20141;-46
2022/10/26 11:41:25;;;;;;;15.32;10.13;;;;;;;14.53;88.04;99587.95;1736889;80;21752;-44
2022/10/26 11:44:27;;;;;;;12.43;9.88;;;;;;;14.53;86.99;99587.11;1740661;81;22230;-43